sensor_id;sensor_type;location;lat;lon;timestamp;temperature;humidity
21734;DHT22;11029;47.820;10.534;2022-09-09T00:03:59;13.50;74.80
21734;DHT22;11029;47.820;10.534;2022-09-09T00:06:31;13.40;75.50
21734;DHT22;11029;47.820;10.534;2022-09-09T00:09:19;13.60;75.10
21734;DHT22;11029;47.820;10.534;2022-09-09T00:14:56;13.60;74.90
21734;DHT22;11029;47.820;10.534;2022-09-09T00:26:02;13.60;75.80
21734;DHT22;11029;47.820;10.534;2022-09-09T00:28:32;13.70;75.10
21734;DHT22;11029;47.820;10.534;2022-09-09T00:31:19;13.70;75.10
21734;DHT22;11029;47.820;10.534;2022-09-09T00:33:49;13.70;75.10
21734;DHT22;11029;47.820;10.534;2022-09-09T00:36:20;13.80;75.10
21734;DHT22;11029;47.820;10.534;2022-09-09T00:38:52;13.80;75.20
21734;DHT22;11029;47.820;10.534;2022-09-09T00:44:36;13.60;75.60
21734;DHT22;11029;47.820;10.534;2022-09-09T00:47:30;13.60;75.70
21734;DHT22;11029;47.820;10.534;2022-09-09T00:50:24;13.60;75.80
21734;DHT22;11029;47.820;10.534;2022-09-09T00:53:09;13.60;75.80
21734;DHT22;11029;47.820;10.534;2022-09-09T00:55:59;13.70;75.60
21734;DHT22;11029;47.820;10.534;2022-09-09T00:58:27;13.70;75.20
21734;DHT22;11029;47.820;10.534;2022-09-09T01:01:13;13.60;75.80
21734;DHT22;11029;47.820;10.534;2022-09-09T01:03:54;13.60;75.70
21734;DHT22;11029;47.820;10.534;2022-09-09T01:06:39;13.60;76.00
21734;DHT22;11029;47.820;10.534;2022-09-09T01:12:01;13.50;77.00
21734;DHT22;11029;47.820;10.534;2022-09-09T01:14:40;13.60;76.70
21734;DHT22;11029;47.820;10.534;2022-09-09T01:17:21;13.70;76.20
21734;DHT22;11029;47.820;10.534;2022-09-09T01:29:16;13.60;76.60
21734;DHT22;11029;47.820;10.534;2022-09-09T01:32:01;13.60;76.60
21734;DHT22;11029;47.820;10.534;2022-09-09T01:34:37;13.60;76.60
21734;DHT22;11029;47.820;10.534;2022-09-09T01:37:11;13.50;76.30
21734;DHT22;11029;47.820;10.534;2022-09-09T01:39:42;13.40;77.00
21734;DHT22;11029;47.820;10.534;2022-09-09T01:42:14;13.50;76.50
21734;DHT22;11029;47.820;10.534;2022-09-09T01:44:42;13.30;77.50
21734;DHT22;11029;47.820;10.534;2022-09-09T01:47:09;13.20;78.20
21734;DHT22;11029;47.820;10.534;2022-09-09T01:49:51;13.30;77.80
21734;DHT22;11029;47.820;10.534;2022-09-09T01:52:22;13.40;77.00
21734;DHT22;11029;47.820;10.534;2022-09-09T01:54:49;13.50;77.40
21734;DHT22;11029;47.820;10.534;2022-09-09T01:57:25;13.50;77.00
21734;DHT22;11029;47.820;10.534;2022-09-09T02:00:11;13.60;76.70
21734;DHT22;11029;47.820;10.534;2022-09-09T02:03:00;13.70;76.30
21734;DHT22;11029;47.820;10.534;2022-09-09T02:05:55;13.70;76.20
21734;DHT22;11029;47.820;10.534;2022-09-09T02:08:36;13.70;75.60
21734;DHT22;11029;47.820;10.534;2022-09-09T02:11:18;13.60;75.80
21734;DHT22;11029;47.820;10.534;2022-09-09T02:13:56;13.50;76.40
21734;DHT22;11029;47.820;10.534;2022-09-09T02:16:48;13.40;76.70
21734;DHT22;11029;47.820;10.534;2022-09-09T02:19:29;13.30;77.40
21734;DHT22;11029;47.820;10.534;2022-09-09T02:22:07;13.20;77.20
21734;DHT22;11029;47.820;10.534;2022-09-09T02:24:36;13.20;78.00
21734;DHT22;11029;47.820;10.534;2022-09-09T02:27:22;13.10;77.90
21734;DHT22;11029;47.820;10.534;2022-09-09T02:29:51;13.10;78.10
21734;DHT22;11029;47.820;10.534;2022-09-09T02:32:32;13.20;78.00
21734;DHT22;11029;47.820;10.534;2022-09-09T02:35:09;13.20;78.40
21734;DHT22;11029;47.820;10.534;2022-09-09T02:37:39;13.20;78.00
21734;DHT22;11029;47.820;10.534;2022-09-09T02:40:08;13.20;78.20
21734;DHT22;11029;47.820;10.534;2022-09-09T02:42:42;13.30;77.90
21734;DHT22;11029;47.820;10.534;2022-09-09T02:45:12;13.40;77.60
21734;DHT22;11029;47.820;10.534;2022-09-09T02:47:56;13.40;77.90
21734;DHT22;11029;47.820;10.534;2022-09-09T02:50:33;13.30;77.80
21734;DHT22;11029;47.820;10.534;2022-09-09T02:53:23;13.30;77.80
21734;DHT22;11029;47.820;10.534;2022-09-09T02:55:55;13.20;78.00
21734;DHT22;11029;47.820;10.534;2022-09-09T02:58:25;13.20;78.40
21734;DHT22;11029;47.820;10.534;2022-09-09T03:00:57;13.30;77.70
21734;DHT22;11029;47.820;10.534;2022-09-09T03:03:26;13.20;78.00
21734;DHT22;11029;47.820;10.534;2022-09-09T03:05:54;13.20;77.70
21734;DHT22;11029;47.820;10.534;2022-09-09T03:08:21;13.20;78.00
21734;DHT22;11029;47.820;10.534;2022-09-09T03:10:48;13.10;78.00
21734;DHT22;11029;47.820;10.534;2022-09-09T03:13:15;13.10;77.70
21734;DHT22;11029;47.820;10.534;2022-09-09T03:15:44;13.20;76.30
21734;DHT22;11029;47.820;10.534;2022-09-09T03:18:15;13.10;76.80
21734;DHT22;11029;47.820;10.534;2022-09-09T03:20:43;13.00;77.20
21734;DHT22;11029;47.820;10.534;2022-09-09T03:23:10;13.00;77.30
21734;DHT22;11029;47.820;10.534;2022-09-09T03:25:49;13.00;77.40
21734;DHT22;11029;47.820;10.534;2022-09-09T03:28:19;13.00;77.50
21734;DHT22;11029;47.820;10.534;2022-09-09T03:30:47;13.00;77.30
21734;DHT22;11029;47.820;10.534;2022-09-09T03:33:15;12.90;77.70
21734;DHT22;11029;47.820;10.534;2022-09-09T03:35:46;12.90;77.60
21734;DHT22;11029;47.820;10.534;2022-09-09T03:38:16;12.90;77.70
21734;DHT22;11029;47.820;10.534;2022-09-09T03:40:54;12.80;77.10
21734;DHT22;11029;47.820;10.534;2022-09-09T03:43:25;12.70;76.80
21734;DHT22;11029;47.820;10.534;2022-09-09T03:45:53;12.60;77.40
21734;DHT22;11029;47.820;10.534;2022-09-09T03:48:24;12.60;77.70
21734;DHT22;11029;47.820;10.534;2022-09-09T03:50:53;12.70;77.70
21734;DHT22;11029;47.820;10.534;2022-09-09T03:53:22;12.70;77.90
21734;DHT22;11029;47.820;10.534;2022-09-09T03:55:52;12.70;76.40
21734;DHT22;11029;47.820;10.534;2022-09-09T03:58:23;12.50;76.80
21734;DHT22;11029;47.820;10.534;2022-09-09T04:00:59;12.40;77.80
21734;DHT22;11029;47.820;10.534;2022-09-09T04:03:27;12.30;77.50
21734;DHT22;11029;47.820;10.534;2022-09-09T04:05:57;12.20;78.50
21734;DHT22;11029;47.820;10.534;2022-09-09T04:08:26;12.20;79.10
21734;DHT22;11029;47.820;10.534;2022-09-09T04:10:54;12.20;78.70
21734;DHT22;11029;47.820;10.534;2022-09-09T04:13:25;12.20;78.40
21734;DHT22;11029;47.820;10.534;2022-09-09T04:16:00;12.30;78.30
21734;DHT22;11029;47.820;10.534;2022-09-09T04:18:27;12.30;78.10
21734;DHT22;11029;47.820;10.534;2022-09-09T04:20:58;12.40;78.00
21734;DHT22;11029;47.820;10.534;2022-09-09T04:23:28;12.40;78.20
21734;DHT22;11029;47.820;10.534;2022-09-09T04:25:59;12.40;76.90
21734;DHT22;11029;47.820;10.534;2022-09-09T04:28:29;12.40;77.00
21734;DHT22;11029;47.820;10.534;2022-09-09T04:30:57;12.40;76.70
21734;DHT22;11029;47.820;10.534;2022-09-09T04:33:24;12.40;76.60
21734;DHT22;11029;47.820;10.534;2022-09-09T04:35:54;12.40;78.00
21734;DHT22;11029;47.820;10.534;2022-09-09T04:38:24;12.50;77.90
21734;DHT22;11029;47.820;10.534;2022-09-09T04:40:51;12.60;77.40
21734;DHT22;11029;47.820;10.534;2022-09-09T04:43:21;12.60;76.90
21734;DHT22;11029;47.820;10.534;2022-09-09T04:45:50;12.60;77.30
21734;DHT22;11029;47.820;10.534;2022-09-09T04:48:23;12.60;77.40
21734;DHT22;11029;47.820;10.534;2022-09-09T04:50:59;12.60;77.40
21734;DHT22;11029;47.820;10.534;2022-09-09T04:53:26;12.60;76.70
21734;DHT22;11029;47.820;10.534;2022-09-09T04:56:05;12.60;77.50
21734;DHT22;11029;47.820;10.534;2022-09-09T04:58:35;12.70;77.40
21734;DHT22;11029;47.820;10.534;2022-09-09T05:01:09;12.60;77.40
21734;DHT22;11029;47.820;10.534;2022-09-09T05:03:38;12.60;77.40
21734;DHT22;11029;47.820;10.534;2022-09-09T05:06:10;12.60;79.00
21734;DHT22;11029;47.820;10.534;2022-09-09T05:08:38;12.50;79.70
21734;DHT22;11029;47.820;10.534;2022-09-09T05:11:22;12.70;79.10
21734;DHT22;11029;47.820;10.534;2022-09-09T05:13:53;12.70;78.50
21734;DHT22;11029;47.820;10.534;2022-09-09T05:16:21;12.60;79.20
21734;DHT22;11029;47.820;10.534;2022-09-09T05:18:48;12.70;79.10
21734;DHT22;11029;47.820;10.534;2022-09-09T05:21:21;12.70;79.20
21734;DHT22;11029;47.820;10.534;2022-09-09T05:23:48;12.70;79.60
21734;DHT22;11029;47.820;10.534;2022-09-09T05:26:18;12.70;79.80
21734;DHT22;11029;47.820;10.534;2022-09-09T05:28:53;12.80;79.70
21734;DHT22;11029;47.820;10.534;2022-09-09T05:31:35;12.70;80.50
21734;DHT22;11029;47.820;10.534;2022-09-09T05:34:08;12.70;80.60
21734;DHT22;11029;47.820;10.534;2022-09-09T05:36:34;12.80;80.20
21734;DHT22;11029;47.820;10.534;2022-09-09T05:39:01;13.00;79.60
21734;DHT22;11029;47.820;10.534;2022-09-09T05:41:31;13.10;78.90
21734;DHT22;11029;47.820;10.534;2022-09-09T05:44:00;13.20;78.50
21734;DHT22;11029;47.820;10.534;2022-09-09T05:46:27;13.20;78.20
21734;DHT22;11029;47.820;10.534;2022-09-09T05:48:55;13.20;78.30
21734;DHT22;11029;47.820;10.534;2022-09-09T05:51:29;13.20;78.30
21734;DHT22;11029;47.820;10.534;2022-09-09T05:54:04;13.30;78.40
21734;DHT22;11029;47.820;10.534;2022-09-09T05:56:34;13.20;78.60
21734;DHT22;11029;47.820;10.534;2022-09-09T05:59:01;13.30;78.50
21734;DHT22;11029;47.820;10.534;2022-09-09T06:01:31;13.40;78.30
21734;DHT22;11029;47.820;10.534;2022-09-09T06:04:00;13.40;77.70
21734;DHT22;11029;47.820;10.534;2022-09-09T06:06:31;13.50;77.80
21734;DHT22;11029;47.820;10.534;2022-09-09T06:09:02;13.60;77.40
21734;DHT22;11029;47.820;10.534;2022-09-09T06:11:37;13.70;77.60
21734;DHT22;11029;47.820;10.534;2022-09-09T06:14:04;13.80;77.40
21734;DHT22;11029;47.820;10.534;2022-09-09T06:16:32;13.90;76.90
21734;DHT22;11029;47.820;10.534;2022-09-09T06:18:59;14.00;76.50
21734;DHT22;11029;47.820;10.534;2022-09-09T06:21:30;14.10;76.10
21734;DHT22;11029;47.820;10.534;2022-09-09T06:24:00;14.20;75.40
21734;DHT22;11029;47.820;10.534;2022-09-09T06:26:30;14.20;76.10
21734;DHT22;11029;47.820;10.534;2022-09-09T06:28:59;14.20;76.30
21734;DHT22;11029;47.820;10.534;2022-09-09T06:31:28;14.30;76.30
21734;DHT22;11029;47.820;10.534;2022-09-09T06:34:01;14.30;76.50
21734;DHT22;11029;47.820;10.534;2022-09-09T06:36:31;14.40;75.10
21734;DHT22;11029;47.820;10.534;2022-09-09T06:38:58;14.40;75.80
21734;DHT22;11029;47.820;10.534;2022-09-09T06:41:27;14.50;76.10
21734;DHT22;11029;47.820;10.534;2022-09-09T06:43:55;14.40;76.30
21734;DHT22;11029;47.820;10.534;2022-09-09T06:46:32;14.50;75.80
21734;DHT22;11029;47.820;10.534;2022-09-09T06:49:00;14.50;74.90
21734;DHT22;11029;47.820;10.534;2022-09-09T06:51:29;14.50;74.40
21734;DHT22;11029;47.820;10.534;2022-09-09T06:53:58;14.50;74.80
21734;DHT22;11029;47.820;10.534;2022-09-09T06:56:30;14.60;74.90
21734;DHT22;11029;47.820;10.534;2022-09-09T06:58:59;14.60;74.60
21734;DHT22;11029;47.820;10.534;2022-09-09T07:01:34;14.50;73.90
21734;DHT22;11029;47.820;10.534;2022-09-09T07:04:05;14.60;74.30
21734;DHT22;11029;47.820;10.534;2022-09-09T07:06:37;14.60;74.50
21734;DHT22;11029;47.820;10.534;2022-09-09T07:09:08;14.70;74.30
21734;DHT22;11029;47.820;10.534;2022-09-09T07:11:45;14.80;73.90
21734;DHT22;11029;47.820;10.534;2022-09-09T07:14:13;14.80;74.10
21734;DHT22;11029;47.820;10.534;2022-09-09T07:16:43;14.90;73.80
21734;DHT22;11029;47.820;10.534;2022-09-09T07:19:11;15.00;73.20
21734;DHT22;11029;47.820;10.534;2022-09-09T07:21:39;15.00;71.80
21734;DHT22;11029;47.820;10.534;2022-09-09T07:24:11;15.00;72.30
21734;DHT22;11029;47.820;10.534;2022-09-09T07:26:41;15.00;73.10
21734;DHT22;11029;47.820;10.534;2022-09-09T07:29:08;15.00;72.70
21734;DHT22;11029;47.820;10.534;2022-09-09T07:31:37;15.10;72.70
21734;DHT22;11029;47.820;10.534;2022-09-09T07:34:09;15.20;72.20
21734;DHT22;11029;47.820;10.534;2022-09-09T07:36:38;15.20;71.80
21734;DHT22;11029;47.820;10.534;2022-09-09T07:39:09;15.30;71.50
21734;DHT22;11029;47.820;10.534;2022-09-09T07:41:42;15.50;71.20
21734;DHT22;11029;47.820;10.534;2022-09-09T07:44:13;15.70;70.90
21734;DHT22;11029;47.820;10.534;2022-09-09T07:46:43;15.80;70.50
21734;DHT22;11029;47.820;10.534;2022-09-09T07:49:17;15.70;69.70
21734;DHT22;11029;47.820;10.534;2022-09-09T07:51:51;15.80;69.40
21734;DHT22;11029;47.820;10.534;2022-09-09T07:54:19;15.80;70.30
21734;DHT22;11029;47.820;10.534;2022-09-09T07:56:50;15.70;69.90
21734;DHT22;11029;47.820;10.534;2022-09-09T07:59:19;15.80;70.00
21734;DHT22;11029;47.820;10.534;2022-09-09T08:01:50;15.80;69.30
21734;DHT22;11029;47.820;10.534;2022-09-09T08:04:24;15.60;68.90
21734;DHT22;11029;47.820;10.534;2022-09-09T08:06:57;15.60;70.20
21734;DHT22;11029;47.820;10.534;2022-09-09T08:09:26;15.60;69.30
21734;DHT22;11029;47.820;10.534;2022-09-09T08:12:05;15.70;69.60
21734;DHT22;11029;47.820;10.534;2022-09-09T08:14:33;15.80;69.20
21734;DHT22;11029;47.820;10.534;2022-09-09T08:17:00;15.80;68.90
21734;DHT22;11029;47.820;10.534;2022-09-09T08:19:28;15.90;67.30
21734;DHT22;11029;47.820;10.534;2022-09-09T08:21:58;15.90;67.70
21734;DHT22;11029;47.820;10.534;2022-09-09T08:24:25;15.80;67.20
21734;DHT22;11029;47.820;10.534;2022-09-09T08:26:52;15.90;68.30
21734;DHT22;11029;47.820;10.534;2022-09-09T08:29:23;15.90;67.30
21734;DHT22;11029;47.820;10.534;2022-09-09T08:31:53;15.90;67.40
21734;DHT22;11029;47.820;10.534;2022-09-09T08:34:21;15.90;67.30
21734;DHT22;11029;47.820;10.534;2022-09-09T08:36:50;15.80;68.40
21734;DHT22;11029;47.820;10.534;2022-09-09T08:39:21;15.90;68.00
21734;DHT22;11029;47.820;10.534;2022-09-09T08:44:57;15.90;67.90
21734;DHT22;11029;47.820;10.534;2022-09-09T08:47:35;15.90;66.80
21734;DHT22;11029;47.820;10.534;2022-09-09T08:53:24;15.80;68.70
21734;DHT22;11029;47.820;10.534;2022-09-09T08:55:56;15.80;68.40
21734;DHT22;11029;47.820;10.534;2022-09-09T08:58:33;15.80;68.50
21734;DHT22;11029;47.820;10.534;2022-09-09T09:04:31;15.50;68.40
21734;DHT22;11029;47.820;10.534;2022-09-09T09:07:25;15.50;69.40
21734;DHT22;11029;47.820;10.534;2022-09-09T09:13:18;15.30;69.60
21734;DHT22;11029;47.820;10.534;2022-09-09T09:15:58;15.30;69.70
21734;DHT22;11029;47.820;10.534;2022-09-09T09:18:27;15.30;70.40
21734;DHT22;11029;47.820;10.534;2022-09-09T09:21:05;15.30;70.20
21734;DHT22;11029;47.820;10.534;2022-09-09T09:23:42;15.30;70.80
21734;DHT22;11029;47.820;10.534;2022-09-09T09:26:11;15.30;71.00
21734;DHT22;11029;47.820;10.534;2022-09-09T09:28:39;15.40;70.60
21734;DHT22;11029;47.820;10.534;2022-09-09T09:31:13;15.40;70.60
21734;DHT22;11029;47.820;10.534;2022-09-09T09:33:48;15.50;70.90
21734;DHT22;11029;47.820;10.534;2022-09-09T09:36:17;15.50;71.10
21734;DHT22;11029;47.820;10.534;2022-09-09T09:38:58;15.60;71.60
21734;DHT22;11029;47.820;10.534;2022-09-09T09:41:47;15.50;70.20
21734;DHT22;11029;47.820;10.534;2022-09-09T09:44:30;15.40;71.00
21734;DHT22;11029;47.820;10.534;2022-09-09T09:47:18;15.30;71.30
21734;DHT22;11029;47.820;10.534;2022-09-09T09:49:57;15.20;70.70
21734;DHT22;11029;47.820;10.534;2022-09-09T09:52:34;15.10;72.20
21734;DHT22;11029;47.820;10.534;2022-09-09T09:55:04;15.10;73.10
21734;DHT22;11029;47.820;10.534;2022-09-09T09:57:39;15.10;74.10
21734;DHT22;11029;47.820;10.534;2022-09-09T10:00:21;15.00;75.40
21734;DHT22;11029;47.820;10.534;2022-09-09T10:02:56;14.80;75.90
21734;DHT22;11029;47.820;10.534;2022-09-09T10:05:28;14.70;76.20
21734;DHT22;11029;47.820;10.534;2022-09-09T10:08:12;14.70;76.70
21734;DHT22;11029;47.820;10.534;2022-09-09T10:10:58;14.80;76.70
21734;DHT22;11029;47.820;10.534;2022-09-09T10:14:00;14.90;77.00
21734;DHT22;11029;47.820;10.534;2022-09-09T10:16:51;15.00;76.00
21734;DHT22;11029;47.820;10.534;2022-09-09T10:19:29;15.20;76.50
21734;DHT22;11029;47.820;10.534;2022-09-09T10:25:08;15.30;76.20
21734;DHT22;11029;47.820;10.534;2022-09-09T10:31:01;15.50;76.70
21734;DHT22;11029;47.820;10.534;2022-09-09T10:36:17;15.70;75.60
21734;DHT22;11029;47.820;10.534;2022-09-09T10:38:52;15.90;75.70
21734;DHT22;11029;47.820;10.534;2022-09-09T10:41:56;16.00;75.00
21734;DHT22;11029;47.820;10.534;2022-09-09T10:44:39;16.10;73.80
21734;DHT22;11029;47.820;10.534;2022-09-09T10:53:05;16.10;73.40
21734;DHT22;11029;47.820;10.534;2022-09-09T10:55:41;16.00;74.20
21734;DHT22;11029;47.820;10.534;2022-09-09T10:58:15;16.10;73.10
21734;DHT22;11029;47.820;10.534;2022-09-09T11:00:47;16.10;73.00
21734;DHT22;11029;47.820;10.534;2022-09-09T11:03:26;16.10;73.70
21734;DHT22;11029;47.820;10.534;2022-09-09T11:08:29;16.30;71.00
21734;DHT22;11029;47.820;10.534;2022-09-09T11:16:24;16.30;71.10
21734;DHT22;11029;47.820;10.534;2022-09-09T11:19:03;16.30;70.80
21734;DHT22;11029;47.820;10.534;2022-09-09T11:21:34;16.30;71.20
21734;DHT22;11029;47.820;10.534;2022-09-09T11:24:10;16.20;70.00
21734;DHT22;11029;47.820;10.534;2022-09-09T11:27:03;16.20;69.50
21734;DHT22;11029;47.820;10.534;2022-09-09T11:40:38;16.10;69.60
21734;DHT22;11029;47.820;10.534;2022-09-09T11:43:18;16.10;69.40
21734;DHT22;11029;47.820;10.534;2022-09-09T11:45:56;16.10;69.50
21734;DHT22;11029;47.820;10.534;2022-09-09T11:48:39;16.10;70.00
21734;DHT22;11029;47.820;10.534;2022-09-09T11:56:56;16.20;70.00
21734;DHT22;11029;47.820;10.534;2022-09-09T11:59:28;16.30;69.40
21734;DHT22;11029;47.820;10.534;2022-09-09T12:02:18;16.40;69.50
21734;DHT22;11029;47.820;10.534;2022-09-09T12:05:12;16.40;68.70
21734;DHT22;11029;47.820;10.534;2022-09-09T12:07:45;16.60;69.20
21734;DHT22;11029;47.820;10.534;2022-09-09T12:10:32;16.70;67.10
21734;DHT22;11029;47.820;10.534;2022-09-09T12:13:20;16.60;66.90
21734;DHT22;11029;47.820;10.534;2022-09-09T12:15:49;16.50;68.60
21734;DHT22;11029;47.820;10.534;2022-09-09T12:18:22;16.70;67.60
21734;DHT22;11029;47.820;10.534;2022-09-09T12:21:01;16.80;66.40
21734;DHT22;11029;47.820;10.534;2022-09-09T12:23:57;16.80;66.40
21734;DHT22;11029;47.820;10.534;2022-09-09T12:26:32;16.90;65.50
21734;DHT22;11029;47.820;10.534;2022-09-09T12:29:16;17.00;65.50
21734;DHT22;11029;47.820;10.534;2022-09-09T12:31:57;17.10;65.30
21734;DHT22;11029;47.820;10.534;2022-09-09T12:39:53;17.40;61.80
21734;DHT22;11029;47.820;10.534;2022-09-09T12:42:22;17.30;61.80
21734;DHT22;11029;47.820;10.534;2022-09-09T12:44:59;17.30;61.80
21734;DHT22;11029;47.820;10.534;2022-09-09T12:47:40;17.30;63.00
21734;DHT22;11029;47.820;10.534;2022-09-09T12:50:31;17.40;62.40
21734;DHT22;11029;47.820;10.534;2022-09-09T12:53:08;17.40;63.30
21734;DHT22;11029;47.820;10.534;2022-09-09T12:55:38;17.50;62.50
21734;DHT22;11029;47.820;10.534;2022-09-09T12:58:06;17.50;62.30
21734;DHT22;11029;47.820;10.534;2022-09-09T13:00:34;17.50;61.10
21734;DHT22;11029;47.820;10.534;2022-09-09T13:03:16;17.50;61.40
21734;DHT22;11029;47.820;10.534;2022-09-09T13:05:44;17.50;60.10
21734;DHT22;11029;47.820;10.534;2022-09-09T13:08:14;17.70;59.80
21734;DHT22;11029;47.820;10.534;2022-09-09T13:11:02;17.80;60.00
21734;DHT22;11029;47.820;10.534;2022-09-09T13:13:35;17.90;58.80
21734;DHT22;11029;47.820;10.534;2022-09-09T13:16:04;17.90;58.60
21734;DHT22;11029;47.820;10.534;2022-09-09T13:18:39;17.80;58.40
21734;DHT22;11029;47.820;10.534;2022-09-09T13:21:06;17.60;58.60
21734;DHT22;11029;47.820;10.534;2022-09-09T13:23:35;17.50;59.00
21734;DHT22;11029;47.820;10.534;2022-09-09T13:26:03;17.30;60.00
21734;DHT22;11029;47.820;10.534;2022-09-09T13:28:33;17.40;60.10
21734;DHT22;11029;47.820;10.534;2022-09-09T13:31:03;17.40;60.90
21734;DHT22;11029;47.820;10.534;2022-09-09T13:33:37;17.40;62.20
21734;DHT22;11029;47.820;10.534;2022-09-09T13:36:09;17.40;61.50
21734;DHT22;11029;47.820;10.534;2022-09-09T13:38:40;17.50;61.50
21734;DHT22;11029;47.820;10.534;2022-09-09T13:41:09;17.50;60.20
21734;DHT22;11029;47.820;10.534;2022-09-09T13:43:44;17.40;60.40
21734;DHT22;11029;47.820;10.534;2022-09-09T13:46:34;17.20;60.60
21734;DHT22;11029;47.820;10.534;2022-09-09T13:54:09;17.30;60.90
21734;DHT22;11029;47.820;10.534;2022-09-09T13:56:38;17.20;61.20
21734;DHT22;11029;47.820;10.534;2022-09-09T13:59:08;17.20;61.90
21734;DHT22;11029;47.820;10.534;2022-09-09T14:01:36;17.20;62.20
21734;DHT22;11029;47.820;10.534;2022-09-09T14:04:04;17.20;60.00
21734;DHT22;11029;47.820;10.534;2022-09-09T14:06:34;17.20;60.20
21734;DHT22;11029;47.820;10.534;2022-09-09T14:09:04;17.30;61.30
21734;DHT22;11029;47.820;10.534;2022-09-09T14:11:31;17.50;60.80
21734;DHT22;11029;47.820;10.534;2022-09-09T14:13:58;17.60;60.70
21734;DHT22;11029;47.820;10.534;2022-09-09T14:16:24;17.70;58.70
21734;DHT22;11029;47.820;10.534;2022-09-09T14:18:54;17.70;59.00
21734;DHT22;11029;47.820;10.534;2022-09-09T14:21:23;18.10;59.20
21734;DHT22;11029;47.820;10.534;2022-09-09T14:23:51;18.50;57.70
21734;DHT22;11029;47.820;10.534;2022-09-09T14:26:20;18.60;57.60
21734;DHT22;11029;47.820;10.534;2022-09-09T14:28:48;18.90;57.60
21734;DHT22;11029;47.820;10.534;2022-09-09T14:31:22;19.10;56.90
21734;DHT22;11029;47.820;10.534;2022-09-09T14:33:49;19.20;56.90
21734;DHT22;11029;47.820;10.534;2022-09-09T14:36:17;19.70;56.10
21734;DHT22;11029;47.820;10.534;2022-09-09T14:38:44;20.10;54.40
21734;DHT22;11029;47.820;10.534;2022-09-09T14:41:12;20.40;52.40
21734;DHT22;11029;47.820;10.534;2022-09-09T14:43:40;20.30;53.70
21734;DHT22;11029;47.820;10.534;2022-09-09T14:46:12;20.40;52.50
21734;DHT22;11029;47.820;10.534;2022-09-09T14:48:39;20.50;51.50
21734;DHT22;11029;47.820;10.534;2022-09-09T14:51:28;20.80;49.40
21734;DHT22;11029;47.820;10.534;2022-09-09T14:53:58;21.00;48.60
21734;DHT22;11029;47.820;10.534;2022-09-09T14:56:28;21.50;48.20
21734;DHT22;11029;47.820;10.534;2022-09-09T14:58:57;21.60;47.30
21734;DHT22;11029;47.820;10.534;2022-09-09T15:01:24;22.00;47.00
21734;DHT22;11029;47.820;10.534;2022-09-09T15:04:02;22.40;45.60
21734;DHT22;11029;47.820;10.534;2022-09-09T15:06:31;22.30;45.90
21734;DHT22;11029;47.820;10.534;2022-09-09T15:08:59;23.20;44.50
21734;DHT22;11029;47.820;10.534;2022-09-09T15:11:29;23.50;43.90
21734;DHT22;11029;47.820;10.534;2022-09-09T15:13:56;24.50;42.30
21734;DHT22;11029;47.820;10.534;2022-09-09T15:16:27;25.40;41.30
21734;DHT22;11029;47.820;10.534;2022-09-09T15:18:56;24.50;41.80
21734;DHT22;11029;47.820;10.534;2022-09-09T15:21:25;25.40;41.10
21734;DHT22;11029;47.820;10.534;2022-09-09T15:23:52;26.00;40.00
21734;DHT22;11029;47.820;10.534;2022-09-09T15:26:20;25.50;40.50
21734;DHT22;11029;47.820;10.534;2022-09-09T15:28:48;26.20;39.80
21734;DHT22;11029;47.820;10.534;2022-09-09T15:31:19;26.60;38.60
21734;DHT22;11029;47.820;10.534;2022-09-09T15:33:54;26.50;38.80
21734;DHT22;11029;47.820;10.534;2022-09-09T15:38:55;26.00;38.80
21734;DHT22;11029;47.820;10.534;2022-09-09T15:41:22;25.00;40.50
21734;DHT22;11029;47.820;10.534;2022-09-09T15:43:52;25.10;40.80
21734;DHT22;11029;47.820;10.534;2022-09-09T15:46:34;25.20;40.50
21734;DHT22;11029;47.820;10.534;2022-09-09T15:49:14;25.60;40.10
21734;DHT22;11029;47.820;10.534;2022-09-09T15:51:43;25.30;39.90
21734;DHT22;11029;47.820;10.534;2022-09-09T15:54:12;25.30;40.40
21734;DHT22;11029;47.820;10.534;2022-09-09T15:56:40;25.00;40.80
21734;DHT22;11029;47.820;10.534;2022-09-09T15:59:07;24.90;40.90
21734;DHT22;11029;47.820;10.534;2022-09-09T16:01:34;24.90;41.40
21734;DHT22;11029;47.820;10.534;2022-09-09T16:04:02;25.10;40.70
21734;DHT22;11029;47.820;10.534;2022-09-09T16:06:29;24.30;41.90
21734;DHT22;11029;47.820;10.534;2022-09-09T16:08:58;23.60;43.20
21734;DHT22;11029;47.820;10.534;2022-09-09T16:11:33;24.00;43.00
21734;DHT22;11029;47.820;10.534;2022-09-09T16:14:02;24.40;42.90
21734;DHT22;11029;47.820;10.534;2022-09-09T16:16:30;24.50;41.50
21734;DHT22;11029;47.820;10.534;2022-09-09T16:19:00;24.70;41.60
21734;DHT22;11029;47.820;10.534;2022-09-09T16:21:37;23.80;43.40
21734;DHT22;11029;47.820;10.534;2022-09-09T16:24:07;23.20;44.20
21734;DHT22;11029;47.820;10.534;2022-09-09T16:26:35;21.90;46.40
21734;DHT22;11029;47.820;10.534;2022-09-09T16:29:02;21.10;48.80
21734;DHT22;11029;47.820;10.534;2022-09-09T16:31:30;20.60;49.40
21734;DHT22;11029;47.820;10.534;2022-09-09T16:34:00;19.90;51.70
21734;DHT22;11029;47.820;10.534;2022-09-09T16:36:28;20.70;50.60
21734;DHT22;11029;47.820;10.534;2022-09-09T16:39:02;22.00;48.10
21734;DHT22;11029;47.820;10.534;2022-09-09T16:41:30;23.10;45.80
21734;DHT22;11029;47.820;10.534;2022-09-09T16:43:58;23.70;44.50
21734;DHT22;11029;47.820;10.534;2022-09-09T16:46:27;23.70;44.00
21734;DHT22;11029;47.820;10.534;2022-09-09T16:48:56;23.80;44.20
21734;DHT22;11029;47.820;10.534;2022-09-09T16:51:28;24.00;43.60
21734;DHT22;11029;47.820;10.534;2022-09-09T16:53:57;24.00;43.20
21734;DHT22;11029;47.820;10.534;2022-09-09T16:56:26;23.60;44.40
21734;DHT22;11029;47.820;10.534;2022-09-09T16:58:55;23.70;43.80
21734;DHT22;11029;47.820;10.534;2022-09-09T17:01:27;23.10;44.50
21734;DHT22;11029;47.820;10.534;2022-09-09T17:03:54;22.20;46.60
21734;DHT22;11029;47.820;10.534;2022-09-09T17:06:27;21.90;47.80
21734;DHT22;11029;47.820;10.534;2022-09-09T17:08:56;22.10;47.10
21734;DHT22;11029;47.820;10.534;2022-09-09T17:11:23;21.80;47.70
21734;DHT22;11029;47.820;10.534;2022-09-09T17:13:52;22.10;47.50
21734;DHT22;11029;47.820;10.534;2022-09-09T17:16:22;22.20;46.30
21734;DHT22;11029;47.820;10.534;2022-09-09T17:18:50;22.30;46.70
21734;DHT22;11029;47.820;10.534;2022-09-09T17:21:22;21.80;47.30
21734;DHT22;11029;47.820;10.534;2022-09-09T17:23:50;21.00;49.10
21734;DHT22;11029;47.820;10.534;2022-09-09T17:26:19;20.20;51.00